createdAt,value
2016-12-14T00:03:35.078Z,1016.37
2016-12-14T00:08:31.734Z,1016.39
2016-12-14T00:13:30.029Z,1016.38
2016-12-14T00:18:26.267Z,1016.44
2016-12-14T00:23:22.933Z,1016.45
2016-12-14T00:28:19.543Z,1016.43
2016-12-14T00:33:16.673Z,1016.47
2016-12-14T00:38:13.554Z,1016.50
2016-12-14T00:43:10.001Z,1016.38
2016-12-14T00:48:06.666Z,1016.40
2016-12-14T00:53:03.479Z,1016.51
2016-12-14T00:58:00.040Z,1016.42
2016-12-14T01:02:57.143Z,1016.45
2016-12-14T01:07:53.863Z,1016.33
2016-12-14T01:12:50.417Z,1016.30
2016-12-14T01:17:49.326Z,1016.33
2016-12-14T01:22:45.172Z,1016.22
2016-12-14T01:27:42.263Z,1016.22
2016-12-14T01:32:39.681Z,1016.16
2016-12-14T01:37:35.995Z,1016.24
2016-12-14T01:42:33.430Z,1016.12
2016-12-14T01:47:30.359Z,1016.20
2016-12-14T01:52:27.158Z,1016.18
2016-12-14T01:57:23.711Z,1016.11
2016-12-14T02:02:20.067Z,1016.09
2016-12-14T02:07:16.621Z,1016.07
2016-12-14T02:12:13.239Z,1016.05
2016-12-14T02:17:11.226Z,1016.09
2016-12-14T02:22:08.023Z,1016.10
2016-12-14T02:27:04.546Z,1016.08
2016-12-14T02:32:01.233Z,1016.05
2016-12-14T02:36:57.343Z,1016.08
2016-12-14T02:41:53.935Z,1016.13
2016-12-14T02:46:50.689Z,1016.13
2016-12-14T02:51:47.222Z,1016.02
2016-12-14T02:56:43.951Z,1016.13
2016-12-14T03:01:40.934Z,1015.98
2016-12-14T03:06:37.695Z,1016.02
2016-12-14T03:11:34.204Z,1015.91
2016-12-14T03:16:30.632Z,1015.88
2016-12-14T03:21:28.203Z,1015.92
2016-12-14T03:26:24.449Z,1015.89
2016-12-14T03:31:20.853Z,1015.92
2016-12-14T03:36:18.258Z,1015.92
2016-12-14T03:41:14.657Z,1015.98
2016-12-14T03:46:11.073Z,1016.08
2016-12-14T03:51:07.819Z,1015.97
2016-12-14T03:56:04.748Z,1015.95
2016-12-14T04:01:01.211Z,1015.88
2016-12-14T04:05:57.726Z,1015.92
2016-12-14T04:10:54.008Z,1016.02
2016-12-14T04:15:50.219Z,1015.88
2016-12-14T04:20:46.788Z,1015.91
2016-12-14T04:25:46.327Z,1015.97
2016-12-14T04:30:42.710Z,1015.87
2016-12-14T04:35:39.231Z,1015.89
2016-12-14T04:40:36.429Z,1015.83
2016-12-14T04:45:33.346Z,1015.80
2016-12-14T04:50:29.955Z,1015.86
2016-12-14T04:55:26.409Z,1015.90
2016-12-14T05:00:25.957Z,1015.91
2016-12-14T05:05:21.975Z,1015.85
2016-12-14T05:10:19.885Z,1015.82
2016-12-14T05:15:16.030Z,1015.82
2016-12-14T05:20:12.755Z,1015.81
2016-12-14T05:25:09.176Z,1015.90
2016-12-14T05:30:05.609Z,1016.00
2016-12-14T05:35:02.059Z,1015.99
2016-12-14T05:39:58.612Z,1016.03
2016-12-14T05:44:55.075Z,1015.87
2016-12-14T05:49:51.727Z,1016.01
2016-12-14T05:54:48.349Z,1016.03
2016-12-14T05:59:45.307Z,1015.94
2016-12-14T06:04:41.595Z,1016.02
2016-12-14T06:09:38.335Z,1016.03
2016-12-14T06:14:35.137Z,1016.07
2016-12-14T06:19:32.356Z,1016.03
2016-12-14T06:24:28.852Z,1016.03
2016-12-14T06:29:25.190Z,1016.09
2016-12-14T06:34:22.493Z,1016.08
2016-12-14T06:39:19.137Z,1016.13
2016-12-14T06:44:15.630Z,1016.12
2016-12-14T06:49:11.994Z,1016.05
2016-12-14T06:54:08.535Z,1016.09
2016-12-14T06:59:05.254Z,1016.05
2016-12-14T07:04:02.301Z,1016.26
2016-12-14T07:08:59.164Z,1016.28
2016-12-14T07:13:55.704Z,1016.37
2016-12-14T07:18:52.174Z,1016.37
2016-12-14T07:23:48.594Z,1016.24
2016-12-14T07:28:45.152Z,1016.43
2016-12-14T07:33:41.647Z,1016.49
2016-12-14T07:38:38.158Z,1016.64
2016-12-14T07:43:34.743Z,1016.62
2016-12-14T07:48:31.295Z,1016.64
2016-12-14T07:53:27.804Z,1016.81
2016-12-14T07:58:24.014Z,1016.86
2016-12-14T08:03:20.676Z,1016.77
2016-12-14T08:08:17.078Z,1016.91
2016-12-14T08:13:13.634Z,1016.98
2016-12-14T08:18:09.995Z,1016.94
2016-12-14T08:23:06.879Z,1016.97
2016-12-14T08:28:03.402Z,1017.04
2016-12-14T08:32:59.918Z,1017.02
2016-12-14T08:37:56.513Z,1017.08
2016-12-14T08:42:52.774Z,1017.15
2016-12-14T08:47:49.082Z,1017.09
2016-12-14T08:52:45.601Z,1017.16
2016-12-14T08:57:42.902Z,1017.24
2016-12-14T09:02:42.372Z,1017.26
2016-12-14T09:07:38.436Z,1017.28
2016-12-14T09:12:34.946Z,1017.29
2016-12-14T09:17:31.703Z,1017.38
2016-12-14T09:22:28.275Z,1017.39
2016-12-14T09:27:24.883Z,1017.40
2016-12-14T09:32:21.923Z,1017.41
2016-12-14T09:37:18.213Z,1017.50
2016-12-14T09:42:17.309Z,1017.40
2016-12-14T09:47:13.230Z,1017.47
2016-12-14T09:52:09.904Z,1017.50
2016-12-14T09:57:06.910Z,1017.47
2016-12-14T10:02:03.603Z,1017.55
2016-12-14T10:07:00.084Z,1017.58
2016-12-14T10:11:57.068Z,1017.66
2016-12-14T10:16:53.437Z,1017.62
2016-12-14T10:21:49.780Z,1017.65
2016-12-14T10:26:48.287Z,1017.64
2016-12-14T10:31:44.312Z,1017.68
2016-12-14T10:36:40.713Z,1017.67
2016-12-14T10:41:37.415Z,1017.77
2016-12-14T10:46:33.831Z,1017.79
2016-12-14T10:51:31.642Z,1017.72
2016-12-14T10:56:28.092Z,1017.67
2016-12-14T11:01:24.611Z,1017.71
2016-12-14T11:06:21.290Z,1017.72
2016-12-14T11:11:17.733Z,1017.80
2016-12-14T11:16:16.674Z,1017.85
2016-12-14T11:21:12.854Z,1017.82
2016-12-14T11:26:15.294Z,1017.77
2016-12-14T11:31:10.316Z,1017.73
2016-12-14T11:36:06.788Z,1017.67
2016-12-14T11:41:04.181Z,1017.72
2016-12-14T11:46:00.584Z,1017.66
2016-12-14T11:50:56.697Z,1017.73
2016-12-14T11:55:53.694Z,1017.67
2016-12-14T12:00:51.195Z,1017.73
2016-12-14T12:05:47.359Z,1017.68
2016-12-14T12:10:46.815Z,1017.67
2016-12-14T12:15:42.387Z,1017.70
2016-12-14T12:20:42.349Z,1017.59
2016-12-14T12:25:38.217Z,1017.65
2016-12-14T12:30:34.518Z,1017.68
2016-12-14T12:35:33.760Z,1017.63
2016-12-14T12:40:29.711Z,1017.66
2016-12-14T12:45:26.040Z,1017.65
2016-12-14T12:50:25.221Z,1017.68
2016-12-14T12:55:21.642Z,1017.76
2016-12-14T13:00:21.517Z,1017.78
2016-12-14T13:05:17.804Z,1017.78
2016-12-14T13:10:14.457Z,1017.80
2016-12-14T13:15:10.952Z,1017.78
2016-12-14T13:20:07.663Z,1017.76
2016-12-14T13:25:04.289Z,1017.84
2016-12-14T13:30:00.325Z,1017.77
2016-12-14T13:34:58.443Z,1017.83
2016-12-14T13:39:54.551Z,1017.88
2016-12-14T13:44:51.185Z,1017.82
2016-12-14T13:49:47.991Z,1017.81
2016-12-14T13:54:44.316Z,1017.75
2016-12-14T13:59:41.702Z,1017.80
2016-12-14T14:04:39.381Z,1017.78
2016-12-14T14:09:35.661Z,1017.86
2016-12-14T14:14:31.845Z,1017.85
2016-12-14T14:19:28.537Z,1017.87
2016-12-14T14:24:25.041Z,1017.91
2016-12-14T14:29:22.185Z,1017.92
2016-12-14T14:34:18.900Z,1017.89
2016-12-14T14:39:15.276Z,1017.94
2016-12-14T14:44:11.807Z,1017.97
2016-12-14T14:49:08.169Z,1017.90
2016-12-14T14:54:07.323Z,1017.88
2016-12-14T14:59:02.881Z,1017.83
2016-12-14T15:03:59.525Z,1017.81
2016-12-14T15:08:56.939Z,1017.76
2016-12-14T15:13:53.256Z,1017.73
2016-12-14T15:18:52.008Z,1017.69
2016-12-14T15:23:48.286Z,1017.85
2016-12-14T15:28:47.203Z,1017.85
2016-12-14T15:33:43.120Z,1017.88
2016-12-14T15:38:39.964Z,1018.01
2016-12-14T15:43:35.965Z,1018.08
2016-12-14T15:48:32.258Z,1018.15
2016-12-14T15:53:30.334Z,1018.21
2016-12-14T15:58:26.202Z,1018.27
2016-12-14T16:03:22.620Z,1018.24
2016-12-14T16:08:21.649Z,1018.29
2016-12-14T16:13:17.672Z,1018.39
2016-12-14T16:18:13.864Z,1018.30
2016-12-14T16:23:10.720Z,1018.40
2016-12-14T16:28:07.188Z,1018.39
2016-12-14T16:33:03.608Z,1018.37
2016-12-14T16:38:00.098Z,1018.46
2016-12-14T16:42:56.748Z,1018.37
2016-12-14T16:47:53.832Z,1018.47
2016-12-14T16:52:50.245Z,1018.46
2016-12-14T16:57:46.626Z,1018.35
2016-12-14T17:02:43.058Z,1018.26
2016-12-14T17:07:39.855Z,1018.24
2016-12-14T17:12:36.121Z,1018.27
2016-12-14T17:17:32.614Z,1018.29
2016-12-14T17:22:29.855Z,1018.27
2016-12-14T17:27:27.555Z,1018.39
2016-12-14T17:32:23.875Z,1018.45
2016-12-14T17:37:20.225Z,1018.52
2016-12-14T17:42:16.856Z,1018.57
2016-12-14T17:47:13.334Z,1018.67
2016-12-14T17:52:10.036Z,1018.79
2016-12-14T17:57:06.589Z,1018.63
2016-12-14T18:02:03.119Z,1018.74
2016-12-14T18:07:02.359Z,1018.77
2016-12-14T18:11:59.356Z,1018.74
2016-12-14T18:16:55.952Z,1018.69
2016-12-14T18:21:52.525Z,1018.78
2016-12-14T18:26:48.907Z,1018.89
2016-12-14T18:31:45.439Z,1018.95
2016-12-14T18:36:41.552Z,1018.97
2016-12-14T18:41:38.103Z,1019.00
2016-12-14T18:46:35.604Z,1018.93
2016-12-14T18:51:32.055Z,1019.01
2016-12-14T18:56:28.565Z,1019.03
2016-12-14T19:01:25.185Z,1019.07
2016-12-14T19:06:21.898Z,1019.10
2016-12-14T19:11:18.196Z,1019.12
2016-12-14T19:16:17.133Z,1019.12
2016-12-14T19:21:13.101Z,1019.20
2016-12-14T19:26:09.527Z,1019.13
2016-12-14T19:31:06.157Z,1019.23
2016-12-14T19:36:03.081Z,1019.20
2016-12-14T19:40:59.654Z,1019.24
2016-12-14T19:45:56.082Z,1019.35
2016-12-14T19:50:52.643Z,1019.36
2016-12-14T19:55:49.312Z,1019.39
2016-12-14T20:00:46.484Z,1019.44
2016-12-14T20:05:43.101Z,1019.41
2016-12-14T20:10:40.272Z,1019.55
2016-12-14T20:15:36.428Z,1019.56
2016-12-14T20:20:33.719Z,1019.49
2016-12-14T20:25:30.343Z,1019.48
2016-12-14T20:30:26.610Z,1019.53
2016-12-14T20:35:23.248Z,1019.46
2016-12-14T20:40:19.786Z,1019.50
2016-12-14T20:45:16.394Z,1019.52
2016-12-14T20:50:12.932Z,1019.64
2016-12-14T20:55:09.519Z,1019.63
2016-12-14T21:00:07.201Z,1019.56
2016-12-14T21:05:03.813Z,1019.60
2016-12-14T21:10:00.309Z,1019.70
2016-12-14T21:14:57.214Z,1019.66
2016-12-14T21:19:53.415Z,1019.59
2016-12-14T21:24:50.043Z,1019.52
2016-12-14T21:29:47.083Z,1019.55
2016-12-14T21:34:43.615Z,1019.50
2016-12-14T21:39:39.950Z,1019.41
2016-12-14T21:44:36.549Z,1019.45
2016-12-14T21:49:32.972Z,1019.44
2016-12-14T21:54:28.855Z,1019.47
2016-12-14T21:59:25.757Z,1019.52
2016-12-14T22:04:22.224Z,1019.53
2016-12-14T22:09:19.422Z,1019.55
2016-12-14T22:14:15.804Z,1019.54
2016-12-14T22:19:12.356Z,1019.58
2016-12-14T22:24:08.947Z,1019.60
2016-12-14T22:29:04.796Z,1019.58
2016-12-14T22:34:01.396Z,1019.55
2016-12-14T22:38:58.402Z,1019.55
2016-12-14T22:43:55.016Z,1019.61
2016-12-14T22:48:51.388Z,1019.73
2016-12-14T22:53:48.943Z,1019.72
2016-12-14T22:58:45.125Z,1019.71
2016-12-14T23:03:42.368Z,1019.71
2016-12-14T23:08:38.627Z,1019.65
2016-12-14T23:13:35.000Z,1019.57
2016-12-14T23:18:31.884Z,1019.54
2016-12-14T23:23:28.327Z,1019.63
2016-12-14T23:28:24.643Z,1019.71
2016-12-14T23:33:21.197Z,1019.66
2016-12-14T23:38:17.986Z,1019.71
2016-12-14T23:43:14.336Z,1019.60
2016-12-14T23:48:10.786Z,1019.64
2016-12-14T23:53:07.211Z,1019.67
2016-12-14T23:58:03.938Z,1019.70
